sensor_id;sensor_type;location;lat;lon;timestamp;P1;durP1;ratioP1;P2;durP2;ratioP2
20415;SDS011;10367;52.202;5.996;2023-06-05T00:01:31;14.97;;;13.47;;
20415;SDS011;10367;52.202;5.996;2023-06-05T00:04:01;15.07;;;13.57;;
20415;SDS011;10367;52.202;5.996;2023-06-05T00:06:34;15.33;;;13.73;;
20415;SDS011;10367;52.202;5.996;2023-06-05T00:09:04;14.70;;;13.30;;
20415;SDS011;10367;52.202;5.996;2023-06-05T00:11:33;20.43;;;15.37;;
20415;SDS011;10367;52.202;5.996;2023-06-05T00:14:02;14.00;;;12.70;;
20415;SDS011;10367;52.202;5.996;2023-06-05T00:16:32;15.60;;;14.00;;
20415;SDS011;10367;52.202;5.996;2023-06-05T00:19:01;13.73;;;12.50;;
20415;SDS011;10367;52.202;5.996;2023-06-05T00:21:32;16.97;;;15.13;;
20415;SDS011;10367;52.202;5.996;2023-06-05T00:24:01;14.23;;;12.77;;
20415;SDS011;10367;52.202;5.996;2023-06-05T00:26:29;16.67;;;14.47;;
20415;SDS011;10367;52.202;5.996;2023-06-05T00:28:58;14.03;;;12.80;;
20415;SDS011;10367;52.202;5.996;2023-06-05T00:31:27;14.40;;;12.97;;
20415;SDS011;10367;52.202;5.996;2023-06-05T00:33:57;19.57;;;13.40;;
20415;SDS011;10367;52.202;5.996;2023-06-05T00:36:26;20.03;;;13.07;;
20415;SDS011;10367;52.202;5.996;2023-06-05T00:38:57;14.93;;;12.17;;
20415;SDS011;10367;52.202;5.996;2023-06-05T00:41:25;18.73;;;14.70;;
20415;SDS011;10367;52.202;5.996;2023-06-05T00:43:54;14.53;;;13.07;;
20415;SDS011;10367;52.202;5.996;2023-06-05T00:46:23;16.80;;;14.20;;
20415;SDS011;10367;52.202;5.996;2023-06-05T00:48:52;16.50;;;13.37;;
20415;SDS011;10367;52.202;5.996;2023-06-05T00:51:22;15.23;;;13.60;;
20415;SDS011;10367;52.202;5.996;2023-06-05T00:53:51;14.57;;;13.23;;
20415;SDS011;10367;52.202;5.996;2023-06-05T00:56:24;21.30;;;14.93;;
20415;SDS011;10367;52.202;5.996;2023-06-05T00:58:53;18.00;;;14.07;;
20415;SDS011;10367;52.202;5.996;2023-06-05T01:01:25;15.77;;;13.60;;
20415;SDS011;10367;52.202;5.996;2023-06-05T01:03:55;15.87;;;13.27;;
20415;SDS011;10367;52.202;5.996;2023-06-05T01:06:25;17.63;;;13.97;;
20415;SDS011;10367;52.202;5.996;2023-06-05T01:08:54;18.07;;;12.77;;
20415;SDS011;10367;52.202;5.996;2023-06-05T01:11:26;16.10;;;13.67;;
20415;SDS011;10367;52.202;5.996;2023-06-05T01:14:06;13.83;;;12.43;;
20415;SDS011;10367;52.202;5.996;2023-06-05T01:16:44;15.10;;;13.53;;
20415;SDS011;10367;52.202;5.996;2023-06-05T01:19:15;15.63;;;13.47;;
20415;SDS011;10367;52.202;5.996;2023-06-05T01:21:45;16.77;;;13.50;;
20415;SDS011;10367;52.202;5.996;2023-06-05T01:24:15;16.77;;;14.53;;
20415;SDS011;10367;52.202;5.996;2023-06-05T01:26:53;14.90;;;13.40;;
20415;SDS011;10367;52.202;5.996;2023-06-05T01:29:32;15.43;;;13.53;;
20415;SDS011;10367;52.202;5.996;2023-06-05T01:32:10;17.97;;;14.83;;
20415;SDS011;10367;52.202;5.996;2023-06-05T01:34:44;16.10;;;13.40;;
20415;SDS011;10367;52.202;5.996;2023-06-05T01:37:15;17.30;;;13.87;;
20415;SDS011;10367;52.202;5.996;2023-06-05T01:39:47;13.80;;;12.40;;
20415;SDS011;10367;52.202;5.996;2023-06-05T01:42:16;18.17;;;13.83;;
20415;SDS011;10367;52.202;5.996;2023-06-05T01:44:46;13.00;;;11.63;;
20415;SDS011;10367;52.202;5.996;2023-06-05T01:47:16;20.53;;;14.27;;
20415;SDS011;10367;52.202;5.996;2023-06-05T01:49:45;16.90;;;13.60;;
20415;SDS011;10367;52.202;5.996;2023-06-05T01:52:17;17.33;;;12.60;;
20415;SDS011;10367;52.202;5.996;2023-06-05T01:54:45;17.33;;;14.13;;
20415;SDS011;10367;52.202;5.996;2023-06-05T01:57:16;16.60;;;13.63;;
20415;SDS011;10367;52.202;5.996;2023-06-05T01:59:45;18.67;;;13.07;;
20415;SDS011;10367;52.202;5.996;2023-06-05T02:02:16;17.10;;;12.77;;
20415;SDS011;10367;52.202;5.996;2023-06-05T02:04:45;17.20;;;13.30;;
20415;SDS011;10367;52.202;5.996;2023-06-05T02:07:14;16.40;;;13.13;;
20415;SDS011;10367;52.202;5.996;2023-06-05T02:09:43;21.73;;;13.83;;
20415;SDS011;10367;52.202;5.996;2023-06-05T02:12:13;13.53;;;11.47;;
20415;SDS011;10367;52.202;5.996;2023-06-05T02:14:43;15.70;;;13.40;;
20415;SDS011;10367;52.202;5.996;2023-06-05T02:17:12;18.03;;;12.80;;
20415;SDS011;10367;52.202;5.996;2023-06-05T02:19:41;16.57;;;12.47;;
20415;SDS011;10367;52.202;5.996;2023-06-05T02:22:10;13.90;;;12.27;;
20415;SDS011;10367;52.202;5.996;2023-06-05T02:24:39;15.07;;;12.60;;
20415;SDS011;10367;52.202;5.996;2023-06-05T02:27:08;14.07;;;12.57;;
20415;SDS011;10367;52.202;5.996;2023-06-05T02:29:38;19.63;;;14.17;;
20415;SDS011;10367;52.202;5.996;2023-06-05T02:32:08;18.23;;;13.53;;
20415;SDS011;10367;52.202;5.996;2023-06-05T02:34:37;17.07;;;12.70;;
20415;SDS011;10367;52.202;5.996;2023-06-05T02:37:06;14.70;;;12.07;;
20415;SDS011;10367;52.202;5.996;2023-06-05T02:39:35;15.10;;;13.47;;
20415;SDS011;10367;52.202;5.996;2023-06-05T02:42:04;15.50;;;12.33;;
20415;SDS011;10367;52.202;5.996;2023-06-05T02:44:35;16.83;;;12.33;;
20415;SDS011;10367;52.202;5.996;2023-06-05T02:47:05;19.00;;;11.73;;
20415;SDS011;10367;52.202;5.996;2023-06-05T02:49:34;17.53;;;12.43;;
20415;SDS011;10367;52.202;5.996;2023-06-05T02:52:04;17.37;;;12.57;;
20415;SDS011;10367;52.202;5.996;2023-06-05T02:54:34;13.83;;;11.20;;
20415;SDS011;10367;52.202;5.996;2023-06-05T02:57:06;14.20;;;12.20;;
20415;SDS011;10367;52.202;5.996;2023-06-05T02:59:37;15.73;;;13.13;;
20415;SDS011;10367;52.202;5.996;2023-06-05T03:02:08;22.77;;;12.57;;
20415;SDS011;10367;52.202;5.996;2023-06-05T03:04:38;16.60;;;13.97;;
20415;SDS011;10367;52.202;5.996;2023-06-05T03:07:07;15.33;;;12.30;;
20415;SDS011;10367;52.202;5.996;2023-06-05T03:09:37;17.93;;;12.70;;
20415;SDS011;10367;52.202;5.996;2023-06-05T03:12:05;14.77;;;12.80;;
20415;SDS011;10367;52.202;5.996;2023-06-05T03:14:35;18.53;;;13.07;;
20415;SDS011;10367;52.202;5.996;2023-06-05T03:17:03;17.00;;;12.57;;
20415;SDS011;10367;52.202;5.996;2023-06-05T03:19:34;21.33;;;13.13;;
20415;SDS011;10367;52.202;5.996;2023-06-05T03:22:03;19.23;;;13.50;;
20415;SDS011;10367;52.202;5.996;2023-06-05T03:24:32;14.50;;;12.17;;
20415;SDS011;10367;52.202;5.996;2023-06-05T03:27:04;17.23;;;13.40;;
20415;SDS011;10367;52.202;5.996;2023-06-05T03:29:33;17.10;;;13.13;;
20415;SDS011;10367;52.202;5.996;2023-06-05T03:32:02;15.70;;;13.20;;
20415;SDS011;10367;52.202;5.996;2023-06-05T03:34:31;14.20;;;12.80;;
20415;SDS011;10367;52.202;5.996;2023-06-05T03:37:03;15.87;;;12.03;;
20415;SDS011;10367;52.202;5.996;2023-06-05T03:39:32;18.00;;;13.87;;
20415;SDS011;10367;52.202;5.996;2023-06-05T03:42:07;16.77;;;12.77;;
20415;SDS011;10367;52.202;5.996;2023-06-05T03:44:38;19.43;;;14.47;;
20415;SDS011;10367;52.202;5.996;2023-06-05T03:47:07;14.23;;;11.70;;
20415;SDS011;10367;52.202;5.996;2023-06-05T03:49:37;15.77;;;12.90;;
20415;SDS011;10367;52.202;5.996;2023-06-05T03:52:12;15.10;;;13.50;;
20415;SDS011;10367;52.202;5.996;2023-06-05T03:54:41;16.97;;;12.97;;
20415;SDS011;10367;52.202;5.996;2023-06-05T03:57:11;18.40;;;12.93;;
20415;SDS011;10367;52.202;5.996;2023-06-05T03:59:48;26.97;;;13.80;;
20415;SDS011;10367;52.202;5.996;2023-06-05T04:02:17;17.20;;;13.43;;
20415;SDS011;10367;52.202;5.996;2023-06-05T04:04:48;17.90;;;13.17;;
20415;SDS011;10367;52.202;5.996;2023-06-05T04:07:17;15.30;;;12.77;;
20415;SDS011;10367;52.202;5.996;2023-06-05T04:09:46;15.20;;;12.40;;
20415;SDS011;10367;52.202;5.996;2023-06-05T04:12:15;16.00;;;12.33;;
20415;SDS011;10367;52.202;5.996;2023-06-05T04:14:46;14.87;;;12.60;;
20415;SDS011;10367;52.202;5.996;2023-06-05T04:17:15;16.80;;;13.70;;
20415;SDS011;10367;52.202;5.996;2023-06-05T04:19:44;18.10;;;13.97;;
20415;SDS011;10367;52.202;5.996;2023-06-05T04:22:15;18.10;;;13.30;;
20415;SDS011;10367;52.202;5.996;2023-06-05T04:24:47;17.60;;;13.57;;
20415;SDS011;10367;52.202;5.996;2023-06-05T04:27:16;17.37;;;12.17;;
20415;SDS011;10367;52.202;5.996;2023-06-05T04:29:58;20.00;;;12.77;;
20415;SDS011;10367;52.202;5.996;2023-06-05T04:32:27;17.50;;;13.33;;
20415;SDS011;10367;52.202;5.996;2023-06-05T04:34:56;14.53;;;12.47;;
20415;SDS011;10367;52.202;5.996;2023-06-05T04:37:29;19.43;;;13.57;;
20415;SDS011;10367;52.202;5.996;2023-06-05T04:39:59;16.63;;;13.30;;
20415;SDS011;10367;52.202;5.996;2023-06-05T04:42:34;19.37;;;14.20;;
20415;SDS011;10367;52.202;5.996;2023-06-05T04:45:04;19.30;;;14.63;;
20415;SDS011;10367;52.202;5.996;2023-06-05T04:47:38;17.97;;;13.77;;
20415;SDS011;10367;52.202;5.996;2023-06-05T04:50:20;16.87;;;12.80;;
20415;SDS011;10367;52.202;5.996;2023-06-05T04:52:54;19.47;;;14.33;;
20415;SDS011;10367;52.202;5.996;2023-06-05T04:55:23;20.53;;;13.90;;
20415;SDS011;10367;52.202;5.996;2023-06-05T04:57:52;18.53;;;13.07;;
20415;SDS011;10367;52.202;5.996;2023-06-05T05:00:21;13.80;;;12.23;;
20415;SDS011;10367;52.202;5.996;2023-06-05T05:02:49;17.93;;;13.97;;
20415;SDS011;10367;52.202;5.996;2023-06-05T05:05:19;24.57;;;15.43;;
20415;SDS011;10367;52.202;5.996;2023-06-05T05:07:47;17.07;;;13.80;;
20415;SDS011;10367;52.202;5.996;2023-06-05T05:10:18;16.33;;;12.80;;
20415;SDS011;10367;52.202;5.996;2023-06-05T05:12:47;20.77;;;15.30;;
20415;SDS011;10367;52.202;5.996;2023-06-05T05:15:16;16.47;;;13.47;;
20415;SDS011;10367;52.202;5.996;2023-06-05T05:17:45;24.63;;;15.23;;
20415;SDS011;10367;52.202;5.996;2023-06-05T05:20:17;16.83;;;13.53;;
20415;SDS011;10367;52.202;5.996;2023-06-05T05:22:46;21.60;;;14.47;;
20415;SDS011;10367;52.202;5.996;2023-06-05T05:25:15;16.90;;;14.53;;
20415;SDS011;10367;52.202;5.996;2023-06-05T05:27:46;17.43;;;14.33;;
20415;SDS011;10367;52.202;5.996;2023-06-05T05:30:15;16.77;;;14.33;;
20415;SDS011;10367;52.202;5.996;2023-06-05T05:32:43;21.53;;;15.73;;
20415;SDS011;10367;52.202;5.996;2023-06-05T05:35:12;17.23;;;13.27;;
20415;SDS011;10367;52.202;5.996;2023-06-05T05:37:41;20.07;;;13.63;;
20415;SDS011;10367;52.202;5.996;2023-06-05T05:40:11;18.50;;;14.00;;
20415;SDS011;10367;52.202;5.996;2023-06-05T05:42:42;18.17;;;15.13;;
20415;SDS011;10367;52.202;5.996;2023-06-05T05:45:11;15.43;;;13.17;;
20415;SDS011;10367;52.202;5.996;2023-06-05T05:47:39;23.53;;;16.20;;
20415;SDS011;10367;52.202;5.996;2023-06-05T05:50:09;18.80;;;13.80;;
20415;SDS011;10367;52.202;5.996;2023-06-05T05:52:38;17.70;;;14.20;;
20415;SDS011;10367;52.202;5.996;2023-06-05T05:55:07;28.80;;;14.27;;
20415;SDS011;10367;52.202;5.996;2023-06-05T05:57:38;17.37;;;15.30;;
20415;SDS011;10367;52.202;5.996;2023-06-05T06:00:09;20.70;;;14.63;;
20415;SDS011;10367;52.202;5.996;2023-06-05T06:02:39;14.40;;;12.77;;
20415;SDS011;10367;52.202;5.996;2023-06-05T06:05:09;15.90;;;13.37;;
20415;SDS011;10367;52.202;5.996;2023-06-05T06:07:39;16.23;;;13.33;;
20415;SDS011;10367;52.202;5.996;2023-06-05T06:10:09;15.80;;;13.13;;
20415;SDS011;10367;52.202;5.996;2023-06-05T06:12:39;20.30;;;14.43;;
20415;SDS011;10367;52.202;5.996;2023-06-05T06:15:10;13.77;;;12.37;;
20415;SDS011;10367;52.202;5.996;2023-06-05T06:17:39;15.17;;;13.57;;
20415;SDS011;10367;52.202;5.996;2023-06-05T06:20:09;14.30;;;12.90;;
20415;SDS011;10367;52.202;5.996;2023-06-05T06:22:40;20.43;;;15.27;;
20415;SDS011;10367;52.202;5.996;2023-06-05T06:25:10;15.17;;;13.63;;
20415;SDS011;10367;52.202;5.996;2023-06-05T06:27:41;17.57;;;15.43;;
20415;SDS011;10367;52.202;5.996;2023-06-05T06:30:14;15.53;;;13.83;;
20415;SDS011;10367;52.202;5.996;2023-06-05T06:32:43;16.13;;;14.37;;
20415;SDS011;10367;52.202;5.996;2023-06-05T06:35:12;16.63;;;13.13;;
20415;SDS011;10367;52.202;5.996;2023-06-05T06:37:41;17.97;;;14.87;;
20415;SDS011;10367;52.202;5.996;2023-06-05T06:40:11;15.43;;;13.73;;
20415;SDS011;10367;52.202;5.996;2023-06-05T06:42:41;18.43;;;15.67;;
20415;SDS011;10367;52.202;5.996;2023-06-05T06:45:10;21.53;;;15.33;;
20415;SDS011;10367;52.202;5.996;2023-06-05T06:47:40;15.33;;;13.87;;
20415;SDS011;10367;52.202;5.996;2023-06-05T06:50:25;20.47;;;14.60;;
20415;SDS011;10367;52.202;5.996;2023-06-05T06:52:54;20.33;;;14.20;;
20415;SDS011;10367;52.202;5.996;2023-06-05T06:55:23;17.90;;;14.17;;
20415;SDS011;10367;52.202;5.996;2023-06-05T06:57:52;15.57;;;13.80;;
20415;SDS011;10367;52.202;5.996;2023-06-05T07:00:21;15.13;;;13.73;;
20415;SDS011;10367;52.202;5.996;2023-06-05T07:02:51;19.03;;;15.33;;
20415;SDS011;10367;52.202;5.996;2023-06-05T07:05:21;25.10;;;15.17;;
20415;SDS011;10367;52.202;5.996;2023-06-05T07:07:53;15.33;;;13.93;;
20415;SDS011;10367;52.202;5.996;2023-06-05T07:10:25;14.97;;;13.40;;
20415;SDS011;10367;52.202;5.996;2023-06-05T07:12:54;16.33;;;14.53;;
20415;SDS011;10367;52.202;5.996;2023-06-05T07:15:23;17.03;;;14.73;;
20415;SDS011;10367;52.202;5.996;2023-06-05T07:17:53;27.13;;;16.33;;
20415;SDS011;10367;52.202;5.996;2023-06-05T07:20:22;18.90;;;14.53;;
20415;SDS011;10367;52.202;5.996;2023-06-05T07:22:51;18.13;;;16.20;;
20415;SDS011;10367;52.202;5.996;2023-06-05T07:25:20;16.60;;;15.00;;
20415;SDS011;10367;52.202;5.996;2023-06-05T07:27:51;17.77;;;15.97;;
20415;SDS011;10367;52.202;5.996;2023-06-05T07:30:20;15.93;;;14.43;;
20415;SDS011;10367;52.202;5.996;2023-06-05T07:32:50;18.13;;;16.00;;
20415;SDS011;10367;52.202;5.996;2023-06-05T07:35:20;16.80;;;15.13;;
20415;SDS011;10367;52.202;5.996;2023-06-05T07:37:50;18.23;;;16.10;;
20415;SDS011;10367;52.202;5.996;2023-06-05T07:40:20;18.53;;;15.60;;
20415;SDS011;10367;52.202;5.996;2023-06-05T07:42:49;20.43;;;17.37;;
20415;SDS011;10367;52.202;5.996;2023-06-05T07:45:18;16.53;;;14.93;;
20415;SDS011;10367;52.202;5.996;2023-06-05T07:47:47;18.27;;;16.17;;
20415;SDS011;10367;52.202;5.996;2023-06-05T07:50:16;18.63;;;16.00;;
20415;SDS011;10367;52.202;5.996;2023-06-05T07:52:49;20.17;;;17.13;;
20415;SDS011;10367;52.202;5.996;2023-06-05T07:55:19;17.27;;;15.57;;
20415;SDS011;10367;52.202;5.996;2023-06-05T07:57:48;16.73;;;14.97;;
20415;SDS011;10367;52.202;5.996;2023-06-05T08:00:19;17.97;;;16.00;;
20415;SDS011;10367;52.202;5.996;2023-06-05T08:02:48;17.27;;;15.67;;
20415;SDS011;10367;52.202;5.996;2023-06-05T08:05:18;18.00;;;16.10;;
20415;SDS011;10367;52.202;5.996;2023-06-05T08:07:47;17.87;;;16.10;;
20415;SDS011;10367;52.202;5.996;2023-06-05T08:10:17;16.27;;;14.77;;
20415;SDS011;10367;52.202;5.996;2023-06-05T08:12:46;19.57;;;17.47;;
20415;SDS011;10367;52.202;5.996;2023-06-05T08:15:14;17.97;;;16.37;;
20415;SDS011;10367;52.202;5.996;2023-06-05T08:17:43;18.13;;;16.37;;
20415;SDS011;10367;52.202;5.996;2023-06-05T08:20:12;18.20;;;16.50;;
20415;SDS011;10367;52.202;5.996;2023-06-05T08:22:41;20.63;;;18.47;;
20415;SDS011;10367;52.202;5.996;2023-06-05T08:25:10;18.50;;;16.60;;
20415;SDS011;10367;52.202;5.996;2023-06-05T08:27:41;19.50;;;16.67;;
20415;SDS011;10367;52.202;5.996;2023-06-05T08:30:10;18.90;;;16.90;;
20415;SDS011;10367;52.202;5.996;2023-06-05T08:32:39;20.80;;;18.63;;
20415;SDS011;10367;52.202;5.996;2023-06-05T08:35:08;18.63;;;16.83;;
20415;SDS011;10367;52.202;5.996;2023-06-05T08:37:37;17.50;;;16.03;;
20415;SDS011;10367;52.202;5.996;2023-06-05T08:40:06;19.60;;;17.57;;
20415;SDS011;10367;52.202;5.996;2023-06-05T08:42:37;19.63;;;17.90;;
20415;SDS011;10367;52.202;5.996;2023-06-05T08:45:08;18.83;;;17.10;;
20415;SDS011;10367;52.202;5.996;2023-06-05T08:47:38;19.23;;;17.33;;
20415;SDS011;10367;52.202;5.996;2023-06-05T08:50:09;19.83;;;18.00;;
20415;SDS011;10367;52.202;5.996;2023-06-05T08:52:38;21.53;;;19.23;;
20415;SDS011;10367;52.202;5.996;2023-06-05T08:55:10;21.00;;;18.97;;
20415;SDS011;10367;52.202;5.996;2023-06-05T08:57:42;20.70;;;18.73;;
20415;SDS011;10367;52.202;5.996;2023-06-05T09:00:13;20.40;;;18.60;;
20415;SDS011;10367;52.202;5.996;2023-06-05T09:02:42;21.97;;;19.83;;
20415;SDS011;10367;52.202;5.996;2023-06-05T09:05:13;20.83;;;18.60;;
20415;SDS011;10367;52.202;5.996;2023-06-05T09:07:43;22.10;;;19.90;;
20415;SDS011;10367;52.202;5.996;2023-06-05T09:10:22;19.30;;;17.60;;
20415;SDS011;10367;52.202;5.996;2023-06-05T09:12:58;21.53;;;19.50;;
20415;SDS011;10367;52.202;5.996;2023-06-05T09:15:30;20.77;;;18.77;;
20415;SDS011;10367;52.202;5.996;2023-06-05T09:18:07;19.77;;;17.97;;
20415;SDS011;10367;52.202;5.996;2023-06-05T09:20:38;22.00;;;19.90;;
20415;SDS011;10367;52.202;5.996;2023-06-05T09:23:22;20.93;;;18.93;;
20415;SDS011;10367;52.202;5.996;2023-06-05T09:25:56;21.60;;;19.30;;
20415;SDS011;10367;52.202;5.996;2023-06-05T09:28:26;20.17;;;18.43;;
20415;SDS011;10367;52.202;5.996;2023-06-05T09:30:58;20.37;;;18.37;;
20415;SDS011;10367;52.202;5.996;2023-06-05T09:33:29;21.73;;;19.73;;
20415;SDS011;10367;52.202;5.996;2023-06-05T09:36:01;19.53;;;17.90;;
20415;SDS011;10367;52.202;5.996;2023-06-05T09:38:31;23.07;;;20.90;;
20415;SDS011;10367;52.202;5.996;2023-06-05T09:41:01;20.80;;;19.00;;
20415;SDS011;10367;52.202;5.996;2023-06-05T09:43:31;19.73;;;17.93;;
20415;SDS011;10367;52.202;5.996;2023-06-05T09:46:07;23.27;;;20.97;;
20415;SDS011;10367;52.202;5.996;2023-06-05T09:48:38;22.00;;;19.93;;
20415;SDS011;10367;52.202;5.996;2023-06-05T09:51:07;21.67;;;19.97;;
20415;SDS011;10367;52.202;5.996;2023-06-05T09:53:42;22.23;;;20.03;;
20415;SDS011;10367;52.202;5.996;2023-06-05T09:56:12;21.37;;;19.60;;
20415;SDS011;10367;52.202;5.996;2023-06-05T09:58:46;21.83;;;20.00;;
20415;SDS011;10367;52.202;5.996;2023-06-05T10:01:18;22.03;;;20.23;;
20415;SDS011;10367;52.202;5.996;2023-06-05T10:03:53;23.37;;;21.20;;
20415;SDS011;10367;52.202;5.996;2023-06-05T10:06:25;22.03;;;20.33;;
20415;SDS011;10367;52.202;5.996;2023-06-05T10:08:55;22.43;;;20.47;;
20415;SDS011;10367;52.202;5.996;2023-06-05T10:11:24;23.77;;;21.80;;
20415;SDS011;10367;52.202;5.996;2023-06-05T10:13:54;22.70;;;20.73;;
20415;SDS011;10367;52.202;5.996;2023-06-05T10:16:27;22.00;;;20.20;;
20415;SDS011;10367;52.202;5.996;2023-06-05T10:18:58;20.77;;;19.27;;
20415;SDS011;10367;52.202;5.996;2023-06-05T10:21:27;21.80;;;19.97;;
20415;SDS011;10367;52.202;5.996;2023-06-05T10:23:58;21.47;;;19.83;;
20415;SDS011;10367;52.202;5.996;2023-06-05T10:26:38;22.40;;;20.60;;
20415;SDS011;10367;52.202;5.996;2023-06-05T10:29:39;24.53;;;21.73;;
20415;SDS011;10367;52.202;5.996;2023-06-05T10:32:23;22.50;;;20.57;;
20415;SDS011;10367;52.202;5.996;2023-06-05T10:35:06;22.17;;;20.43;;
20415;SDS011;10367;52.202;5.996;2023-06-05T10:37:44;22.87;;;21.03;;
20415;SDS011;10367;52.202;5.996;2023-06-05T10:40:24;21.73;;;19.87;;
20415;SDS011;10367;52.202;5.996;2023-06-05T10:42:54;24.33;;;22.30;;
20415;SDS011;10367;52.202;5.996;2023-06-05T10:45:29;23.10;;;21.40;;
20415;SDS011;10367;52.202;5.996;2023-06-05T10:48:00;21.70;;;20.17;;
20415;SDS011;10367;52.202;5.996;2023-06-05T10:50:29;22.70;;;21.07;;
20415;SDS011;10367;52.202;5.996;2023-06-05T10:52:59;21.93;;;20.27;;
20415;SDS011;10367;52.202;5.996;2023-06-05T10:55:28;23.23;;;21.33;;
20415;SDS011;10367;52.202;5.996;2023-06-05T10:58:10;22.53;;;20.90;;
20415;SDS011;10367;52.202;5.996;2023-06-05T11:03:54;24.90;;;22.93;;
20415;SDS011;10367;52.202;5.996;2023-06-05T11:06:24;24.03;;;22.23;;
20415;SDS011;10367;52.202;5.996;2023-06-05T11:09:06;25.53;;;23.07;;
20415;SDS011;10367;52.202;5.996;2023-06-05T11:11:55;24.73;;;22.73;;
20415;SDS011;10367;52.202;5.996;2023-06-05T11:14:25;23.20;;;21.60;;
20415;SDS011;10367;52.202;5.996;2023-06-05T11:17:27;24.03;;;22.23;;
20415;SDS011;10367;52.202;5.996;2023-06-05T11:19:58;23.00;;;21.37;;
20415;SDS011;10367;52.202;5.996;2023-06-05T11:22:32;23.73;;;22.03;;
20415;SDS011;10367;52.202;5.996;2023-06-05T11:28:00;24.33;;;22.37;;
20415;SDS011;10367;52.202;5.996;2023-06-05T11:30:33;22.90;;;21.23;;
20415;SDS011;10367;52.202;5.996;2023-06-05T11:33:13;24.40;;;22.03;;
20415;SDS011;10367;52.202;5.996;2023-06-05T11:35:45;24.83;;;22.87;;
20415;SDS011;10367;52.202;5.996;2023-06-05T11:38:15;24.27;;;22.47;;
20415;SDS011;10367;52.202;5.996;2023-06-05T11:40:49;25.73;;;23.83;;
20415;SDS011;10367;52.202;5.996;2023-06-05T11:43:17;24.80;;;22.77;;
20415;SDS011;10367;52.202;5.996;2023-06-05T11:45:50;26.03;;;24.03;;
20415;SDS011;10367;52.202;5.996;2023-06-05T11:48:21;26.20;;;24.20;;
20415;SDS011;10367;52.202;5.996;2023-06-05T11:50:53;26.17;;;24.13;;
20415;SDS011;10367;52.202;5.996;2023-06-05T11:53:24;24.93;;;23.10;;
20415;SDS011;10367;52.202;5.996;2023-06-05T11:55:54;26.03;;;23.87;;
20415;SDS011;10367;52.202;5.996;2023-06-05T11:58:35;24.27;;;22.67;;
20415;SDS011;10367;52.202;5.996;2023-06-05T12:01:06;23.50;;;21.87;;
20415;SDS011;10367;52.202;5.996;2023-06-05T12:03:40;25.63;;;23.77;;
20415;SDS011;10367;52.202;5.996;2023-06-05T12:06:10;25.47;;;23.53;;
20415;SDS011;10367;52.202;5.996;2023-06-05T12:08:41;24.87;;;22.87;;
20415;SDS011;10367;52.202;5.996;2023-06-05T12:11:19;24.40;;;22.73;;
20415;SDS011;10367;52.202;5.996;2023-06-05T12:13:50;25.63;;;23.83;;
20415;SDS011;10367;52.202;5.996;2023-06-05T12:16:29;25.30;;;23.27;;
20415;SDS011;10367;52.202;5.996;2023-06-05T12:19:00;25.60;;;23.40;;
20415;SDS011;10367;52.202;5.996;2023-06-05T12:21:43;26.47;;;24.47;;
20415;SDS011;10367;52.202;5.996;2023-06-05T12:24:12;25.57;;;23.67;;
20415;SDS011;10367;52.202;5.996;2023-06-05T12:26:47;24.53;;;22.93;;
20415;SDS011;10367;52.202;5.996;2023-06-05T12:29:21;27.20;;;24.63;;
20415;SDS011;10367;52.202;5.996;2023-06-05T12:31:52;25.97;;;24.07;;
20415;SDS011;10367;52.202;5.996;2023-06-05T12:34:40;24.20;;;22.60;;
20415;SDS011;10367;52.202;5.996;2023-06-05T12:37:22;25.50;;;23.23;;
20415;SDS011;10367;52.202;5.996;2023-06-05T12:39:55;26.13;;;24.03;;
20415;SDS011;10367;52.202;5.996;2023-06-05T12:42:26;25.50;;;23.67;;
20415;SDS011;10367;52.202;5.996;2023-06-05T12:44:56;24.73;;;23.03;;
20415;SDS011;10367;52.202;5.996;2023-06-05T12:47:24;24.90;;;23.20;;
20415;SDS011;10367;52.202;5.996;2023-06-05T12:49:53;25.57;;;23.67;;
20415;SDS011;10367;52.202;5.996;2023-06-05T12:52:25;25.10;;;23.43;;
20415;SDS011;10367;52.202;5.996;2023-06-05T12:54:53;26.90;;;24.70;;
20415;SDS011;10367;52.202;5.996;2023-06-05T12:57:23;25.20;;;23.50;;
20415;SDS011;10367;52.202;5.996;2023-06-05T12:59:53;28.20;;;25.90;;
20415;SDS011;10367;52.202;5.996;2023-06-05T13:02:23;26.20;;;24.40;;
20415;SDS011;10367;52.202;5.996;2023-06-05T13:04:52;26.40;;;24.27;;
20415;SDS011;10367;52.202;5.996;2023-06-05T13:07:22;26.70;;;24.37;;
20415;SDS011;10367;52.202;5.996;2023-06-05T13:09:53;26.70;;;24.63;;
20415;SDS011;10367;52.202;5.996;2023-06-05T13:12:22;26.80;;;24.90;;
20415;SDS011;10367;52.202;5.996;2023-06-05T13:14:51;27.93;;;25.60;;
20415;SDS011;10367;52.202;5.996;2023-06-05T13:17:20;26.07;;;24.27;;
20415;SDS011;10367;52.202;5.996;2023-06-05T13:19:50;27.03;;;25.03;;
20415;SDS011;10367;52.202;5.996;2023-06-05T13:22:18;26.17;;;24.37;;
20415;SDS011;10367;52.202;5.996;2023-06-05T13:24:48;30.47;;;27.87;;
20415;SDS011;10367;52.202;5.996;2023-06-05T13:27:19;26.03;;;24.23;;
20415;SDS011;10367;52.202;5.996;2023-06-05T13:29:48;27.60;;;25.53;;
20415;SDS011;10367;52.202;5.996;2023-06-05T13:32:16;26.73;;;24.83;;
20415;SDS011;10367;52.202;5.996;2023-06-05T13:34:46;27.27;;;25.07;;
20415;SDS011;10367;52.202;5.996;2023-06-05T13:37:15;28.13;;;25.43;;
20415;SDS011;10367;52.202;5.996;2023-06-05T13:39:43;28.77;;;26.20;;
20415;SDS011;10367;52.202;5.996;2023-06-05T13:42:12;25.80;;;24.10;;
20415;SDS011;10367;52.202;5.996;2023-06-05T13:44:43;26.10;;;24.30;;
20415;SDS011;10367;52.202;5.996;2023-06-05T13:47:11;26.00;;;24.00;;
20415;SDS011;10367;52.202;5.996;2023-06-05T13:49:40;27.57;;;25.60;;
20415;SDS011;10367;52.202;5.996;2023-06-05T13:52:09;28.23;;;25.93;;
20415;SDS011;10367;52.202;5.996;2023-06-05T13:54:38;25.63;;;24.07;;
20415;SDS011;10367;52.202;5.996;2023-06-05T13:57:08;26.23;;;24.33;;
20415;SDS011;10367;52.202;5.996;2023-06-05T13:59:37;26.80;;;24.90;;
20415;SDS011;10367;52.202;5.996;2023-06-05T14:02:07;24.23;;;22.73;;
20415;SDS011;10367;52.202;5.996;2023-06-05T14:04:36;26.13;;;24.33;;
20415;SDS011;10367;52.202;5.996;2023-06-05T14:07:05;25.73;;;24.03;;
20415;SDS011;10367;52.202;5.996;2023-06-05T14:09:34;24.83;;;23.30;;
20415;SDS011;10367;52.202;5.996;2023-06-05T14:12:03;26.20;;;24.60;;
20415;SDS011;10367;52.202;5.996;2023-06-05T14:14:36;25.87;;;24.23;;
20415;SDS011;10367;52.202;5.996;2023-06-05T14:17:07;25.63;;;23.80;;
20415;SDS011;10367;52.202;5.996;2023-06-05T14:19:36;25.90;;;24.20;;
20415;SDS011;10367;52.202;5.996;2023-06-05T14:22:08;26.77;;;25.00;;
20415;SDS011;10367;52.202;5.996;2023-06-05T14:24:37;26.00;;;24.20;;
20415;SDS011;10367;52.202;5.996;2023-06-05T14:27:07;26.10;;;24.10;;
20415;SDS011;10367;52.202;5.996;2023-06-05T14:29:39;26.10;;;24.40;;
20415;SDS011;10367;52.202;5.996;2023-06-05T14:32:09;25.37;;;23.90;;
20415;SDS011;10367;52.202;5.996;2023-06-05T14:34:38;26.90;;;25.07;;
20415;SDS011;10367;52.202;5.996;2023-06-05T14:37:07;26.90;;;25.13;;
20415;SDS011;10367;52.202;5.996;2023-06-05T14:39:36;25.50;;;23.90;;
20415;SDS011;10367;52.202;5.996;2023-06-05T14:42:05;27.30;;;25.47;;
20415;SDS011;10367;52.202;5.996;2023-06-05T14:44:40;28.93;;;26.93;;
20415;SDS011;10367;52.202;5.996;2023-06-05T14:47:10;27.53;;;25.67;;
20415;SDS011;10367;52.202;5.996;2023-06-05T14:49:39;27.00;;;25.13;;